Terminal Aerodrome Forecast
Issued by NWS

Home | Current Version | Previous Version | Text Only | Print | Product List | Glossary On
Versions: 1 2 3 4 5 6 7 8 9 10 11 12 13 14 15 16 17 18 19 20
000
FTUS41 KPBZ 241300 AAB
TAFBVI
TAF AMD
KBVI 241320Z 2413/2512 29003KT P6SM BKN015 BKN200
     FM241400 VRB04KT P6SM FEW020 BKN200
     FM250900 24005KT P6SM BKN035=

USA.gov is the U.S. government's official web portal to all federal, state and local government web resources and services.